Time,TemperatureF,DewpointF,PressureIn,WindDirection,WindDirectionDegrees,WindSpeedMPH,WindSpeedGustMPH,Humidity,HourlyPrecipIn,Conditions,Clouds,dailyrainin,SoftwareType,DateUTC
2013-10-25 00:02:00,38.1,28.2,30.40,NNE,22,0.0,1.3,67,0.00,,,0.00,WUHU21623XXSP,2013-10-25 05:02:00,
2013-10-25 00:07:00,37.9,28.4,30.40,NNE,22,0.8,1.6,68,0.00,,,0.00,WUHU21623XXSP,2013-10-25 05:07:00,
2013-10-25 00:12:00,37.8,28.3,30.40,NNE,22,0.0,1.8,68,0.00,,,0.00,WUHU21623XXSP,2013-10-25 05:12:00,
2013-10-25 00:17:00,37.6,28.1,30.40,NNE,22,0.0,1.8,68,0.00,,,0.00,WUHU21623XXSP,2013-10-25 05:17:00,
2013-10-25 00:22:00,37.6,28.1,30.40,NNE,22,0.4,0.4,68,0.00,,,0.00,WUHU21623XXSP,2013-10-25 05:22:00,
2013-10-25 00:27:00,37.2,28.0,30.40,NNE,22,1.2,3.1,69,0.00,,,0.00,WUHU21623XXSP,2013-10-25 05:27:00,
2013-10-25 00:32:00,37.2,28.4,30.41,NNE,22,2.6,3.8,70,0.00,,,0.00,WUHU21623XXSP,2013-10-25 05:32:00,
2013-10-25 00:37:00,37.2,28.7,30.40,NNE,22,3.4,3.8,71,0.00,,,0.00,WUHU21623XXSP,2013-10-25 05:37:00,
2013-10-25 00:42:00,37.2,29.1,30.41,NNE,22,3.1,5.1,72,0.00,,,0.00,WUHU21623XXSP,2013-10-25 05:42:00,
2013-10-25 00:47:00,37.4,29.3,30.41,NNE,22,3.6,5.1,72,0.00,,,0.00,WUHU21623XXSP,2013-10-25 05:47:00,
2013-10-25 00:52:00,37.6,29.5,30.41,NNE,24,3.6,5.1,72,0.00,,,0.00,WUHU21623XXSP,2013-10-25 05:52:00,
2013-10-25 00:57:00,37.6,29.5,30.41,NNE,26,4.6,6.5,72,0.00,,,0.00,WUHU21623XXSP,2013-10-25 05:57:00,
2013-10-25 01:02:00,37.8,29.6,30.41,NNE,22,3.8,6.5,72,0.00,,,0.00,WUHU21623XXSP,2013-10-25 06:02:00,
2013-10-25 01:07:00,37.8,29.3,30.41,NNE,22,5.8,5.8,71,0.00,,,0.00,WUHU21623XXSP,2013-10-25 06:07:00,
2013-10-25 01:12:00,37.8,29.3,30.42,NNE,22,1.9,5.8,71,0.00,,,0.00,WUHU21623XXSP,2013-10-25 06:12:00,
2013-10-25 01:17:00,37.6,29.1,30.42,NNE,22,1.2,5.4,71,0.00,,,0.00,WUHU21623XXSP,2013-10-25 06:17:00,
2013-10-25 01:22:00,37.6,29.1,30.42,NNE,22,1.1,3.1,71,0.00,,,0.00,WUHU21623XXSP,2013-10-25 06:22:00,
2013-10-25 01:27:00,37.2,28.7,30.42,NNE,22,1.9,3.4,71,0.00,,,0.00,WUHU21623XXSP,2013-10-25 06:27:00,
2013-10-25 01:32:00,37.2,29.1,30.43,NNE,22,0.9,3.4,72,0.00,,,0.00,WUHU21623XXSP,2013-10-25 06:32:00,
2013-10-25 01:37:00,37.0,28.5,30.43,NNE,22,0.3,0.9,71,0.00,,,0.00,WUHU21623XXSP,2013-10-25 06:37:00,
2013-10-25 01:42:00,36.7,28.2,30.43,NNE,22,0.0,0.9,71,0.00,,,0.00,WUHU21623XXSP,2013-10-25 06:42:00,
2013-10-25 01:47:00,36.5,28.1,30.43,NNE,22,0.0,0.2,71,0.00,,,0.00,WUHU21623XXSP,2013-10-25 06:47:00,
2013-10-25 01:52:00,36.3,27.9,30.43,NNE,22,0.0,0.0,71,0.00,,,0.00,WUHU21623XXSP,2013-10-25 06:52:00,
2013-10-25 01:57:00,36.0,27.6,30.44,NNE,22,0.0,0.0,71,0.00,,,0.00,WUHU21623XXSP,2013-10-25 06:57:00,
2013-10-25 02:02:00,35.4,27.0,30.43,NNE,22,0.0,0.0,71,0.00,,,0.00,WUHU21623XXSP,2013-10-25 07:02:00,
2013-10-25 02:07:00,35.2,27.5,30.43,NNE,22,0.0,0.0,73,0.00,,,0.00,WUHU21623XXSP,2013-10-25 07:07:00,
2013-10-25 02:12:00,35.2,27.8,30.44,NNE,22,0.0,0.0,74,0.00,,,0.00,WUHU21623XXSP,2013-10-25 07:12:00,
2013-10-25 02:17:00,34.9,27.5,30.44,NNE,22,0.0,0.0,74,0.00,,,0.00,WUHU21623XXSP,2013-10-25 07:17:00,
2013-10-25 02:22:00,34.7,27.3,30.44,NNE,22,0.0,0.0,74,0.00,,,0.00,WUHU21623XXSP,2013-10-25 07:22:00,
2013-10-25 02:27:00,34.3,26.9,30.44,NNE,22,0.0,0.0,74,0.00,,,0.00,WUHU21623XXSP,2013-10-25 07:27:00,
2013-10-25 02:32:00,34.3,26.9,30.44,NNE,22,0.0,0.0,74,0.00,,,0.00,WUHU21623XXSP,2013-10-25 07:32:00,
2013-10-25 02:37:00,34.3,27.2,30.44,NNE,22,0.0,0.0,75,0.00,,,0.00,WUHU21623XXSP,2013-10-25 07:37:00,
2013-10-25 02:42:00,34.3,27.2,30.44,NNE,22,1.1,1.1,75,0.00,,,0.00,WUHU21623XXSP,2013-10-25 07:42:00,
2013-10-25 02:47:00,34.2,27.5,30.44,NNE,22,1.6,2.2,76,0.00,,,0.00,WUHU21623XXSP,2013-10-25 07:47:00,
2013-10-25 02:52:00,34.3,27.6,30.44,NNE,22,1.1,2.2,76,0.00,,,0.00,WUHU21623XXSP,2013-10-25 07:52:00,
2013-10-25 02:57:00,34.3,27.9,30.44,NNE,22,1.1,2.0,77,0.00,,,0.00,WUHU21623XXSP,2013-10-25 07:57:00,
2013-10-25 03:02:00,34.2,27.8,30.44,NNE,22,0.4,1.3,77,0.00,,,0.00,WUHU21623XXSP,2013-10-25 08:02:00,
2013-10-25 03:07:00,34.0,27.6,30.44,NNE,22,0.6,1.1,77,0.00,,,0.00,WUHU21623XXSP,2013-10-25 08:07:00,
2013-10-25 03:12:00,34.0,27.6,30.44,NNE,22,0.4,0.9,77,0.00,,,0.00,WUHU21623XXSP,2013-10-25 08:12:00,
2013-10-25 03:17:00,33.6,27.2,30.44,NNE,22,0.0,0.4,77,0.00,,,0.00,WUHU21623XXSP,2013-10-25 08:17:00,
2013-10-25 03:22:00,33.6,27.2,30.44,NNE,22,0.0,0.0,77,0.00,,,0.00,WUHU21623XXSP,2013-10-25 08:22:00,
2013-10-25 03:27:00,33.4,26.7,30.44,NNE,22,0.0,0.0,76,0.00,,,0.00,WUHU21623XXSP,2013-10-25 08:27:00,
2013-10-25 03:32:00,33.1,26.4,30.44,NNE,22,0.0,0.0,76,0.00,,,0.00,WUHU21623XXSP,2013-10-25 08:32:00,
2013-10-25 03:37:00,32.9,26.2,30.44,NNE,22,0.0,0.0,76,0.00,,,0.00,WUHU21623XXSP,2013-10-25 08:37:00,
2013-10-25 03:42:00,32.7,26.3,30.44,NNE,22,0.0,0.0,77,0.00,,,0.00,WUHU21623XXSP,2013-10-25 08:42:00,
2013-10-25 03:47:00,32.5,26.1,30.45,NNE,22,0.0,0.0,77,0.00,,,0.00,WUHU21623XXSP,2013-10-25 08:47:00,
2013-10-25 03:52:00,32.4,26.0,30.45,North,0,0.0,0.0,77,0.00,,,0.00,WUHU21623XXSP,2013-10-25 08:52:00,
2013-10-25 03:57:00,32.2,25.8,30.46,North,0,0.0,0.0,77,0.00,,,0.00,WUHU21623XXSP,2013-10-25 08:57:00,
2013-10-25 04:02:00,31.8,25.4,30.46,North,0,0.0,0.0,77,0.00,,,0.00,WUHU21623XXSP,2013-10-25 09:02:00,
2013-10-25 04:07:00,31.8,25.4,30.45,North,0,0.0,0.0,77,0.00,,,0.00,WUHU21623XXSP,2013-10-25 09:07:00,
2013-10-25 04:12:00,31.8,25.4,30.46,North,0,0.0,0.0,77,0.00,,,0.00,WUHU21623XXSP,2013-10-25 09:12:00,
2013-10-25 04:17:00,31.8,25.7,30.45,North,0,0.2,0.2,78,0.00,,,0.00,WUHU21623XXSP,2013-10-25 09:17:00,
2013-10-25 04:22:00,31.8,25.7,30.46,NNE,22,3.4,3.6,78,0.00,,,0.00,WUHU21623XXSP,2013-10-25 09:22:00,
2013-10-25 04:27:00,31.8,26.0,30.46,NE,45,4.3,4.9,79,0.00,,,0.00,WUHU21623XXSP,2013-10-25 09:27:00,
2013-10-25 04:32:00,32.4,26.6,30.45,NNE,22,4.7,6.5,79,0.00,,,0.00,WUHU21623XXSP,2013-10-25 09:32:00,
2013-10-25 04:37:00,32.7,26.9,30.46,NNE,23,3.4,6.5,79,0.00,,,0.00,WUHU21623XXSP,2013-10-25 09:37:00,
2013-10-25 04:42:00,32.9,27.1,30.46,NNE,22,2.9,6.0,79,0.00,,,0.00,WUHU21623XXSP,2013-10-25 09:42:00,
2013-10-25 04:47:00,33.1,27.3,30.46,NNE,22,0.5,5.4,79,0.00,,,0.00,WUHU21623XXSP,2013-10-25 09:47:00,
2013-10-25 04:52:00,33.3,27.5,30.47,NNE,22,0.0,5.4,79,0.00,,,0.00,WUHU21623XXSP,2013-10-25 09:52:00,
2013-10-25 04:57:00,33.1,27.3,30.47,NNE,22,0.0,0.0,79,0.00,,,0.00,WUHU21623XXSP,2013-10-25 09:57:00,
2013-10-25 05:02:00,32.7,26.9,30.47,NNE,22,2.0,2.0,79,0.00,,,0.00,WUHU21623XXSP,2013-10-25 10:02:00,
2013-10-25 05:07:00,32.5,26.7,30.47,NNE,22,2.2,2.9,79,0.00,,,0.00,WUHU21623XXSP,2013-10-25 10:07:00,
2013-10-25 05:12:00,32.5,26.7,30.47,NNE,22,2.9,4.9,79,0.00,,,0.00,WUHU21623XXSP,2013-10-25 10:12:00,
2013-10-25 05:17:00,32.5,26.7,30.47,NNE,22,2.0,4.9,79,0.00,,,0.00,WUHU21623XXSP,2013-10-25 10:17:00,
2013-10-25 05:22:00,32.5,26.7,30.48,NNE,22,0.0,3.6,79,0.00,,,0.00,WUHU21623XXSP,2013-10-25 10:22:00,
2013-10-25 05:27:00,32.4,26.6,30.48,West,270,2.5,2.9,79,0.00,,,0.00,WUHU21623XXSP,2013-10-25 10:27:00,
2013-10-25 05:32:00,32.2,26.4,30.48,WSW,247,2.2,3.1,79,0.00,,,0.00,WUHU21623XXSP,2013-10-25 10:32:00,
2013-10-25 05:37:00,31.8,26.0,30.48,West,270,0.8,3.1,79,0.00,,,0.00,WUHU21623XXSP,2013-10-25 10:37:00,
2013-10-25 05:42:00,31.6,25.8,30.48,West,270,0.0,2.7,79,0.00,,,0.00,WUHU21623XXSP,2013-10-25 10:42:00,
2013-10-25 05:47:00,31.3,25.6,30.48,West,270,0.0,0.0,79,0.00,,,0.00,WUHU21623XXSP,2013-10-25 10:47:00,
2013-10-25 05:52:00,31.1,25.4,30.48,North,0,2.2,2.7,79,0.00,,,0.00,WUHU21623XXSP,2013-10-25 10:52:00,
2013-10-25 05:57:00,31.1,25.4,30.48,North,0,1.6,2.7,79,0.00,,,0.00,WUHU21623XXSP,2013-10-25 10:57:00,
2013-10-25 06:02:00,31.3,25.6,30.48,North,0,0.6,2.7,79,0.00,,,0.00,WUHU21623XXSP,2013-10-25 11:02:00,
2013-10-25 06:07:00,31.3,25.6,30.49,North,0,0.9,1.6,79,0.00,,,0.00,WUHU21623XXSP,2013-10-25 11:07:00,
2013-10-25 06:12:00,31.3,25.6,30.49,North,0,1.2,1.3,79,0.00,,,0.00,WUHU21623XXSP,2013-10-25 11:12:00,
2013-10-25 06:17:00,31.3,25.6,30.49,North,0,0.0,1.3,79,0.00,,,0.00,WUHU21623XXSP,2013-10-25 11:17:00,
2013-10-25 06:22:00,31.1,25.4,30.49,North,0,0.0,0.0,79,0.00,,,0.00,WUHU21623XXSP,2013-10-25 11:22:00,
2013-10-25 06:27:00,30.7,25.0,30.49,NNW,337,0.0,0.0,79,0.00,,,0.00,WUHU21623XXSP,2013-10-25 11:27:00,
2013-10-25 06:32:00,30.7,25.0,30.49,NNW,337,0.0,0.0,79,0.00,,,0.00,WUHU21623XXSP,2013-10-25 11:32:00,
2013-10-25 06:37:00,30.4,24.7,30.49,NNW,337,0.0,0.0,79,0.00,,,0.00,WUHU21623XXSP,2013-10-25 11:37:00,
2013-10-25 06:42:00,30.4,24.7,30.49,NNW,337,0.0,0.0,79,0.00,,,0.00,WUHU21623XXSP,2013-10-25 11:42:00,
2013-10-25 06:47:00,30.4,25.0,30.49,NNW,337,0.0,0.0,80,0.00,,,0.00,WUHU21623XXSP,2013-10-25 11:47:00,
2013-10-25 06:52:00,30.4,25.0,30.49,NNW,337,0.0,0.0,80,0.00,,,0.00,WUHU21623XXSP,2013-10-25 11:52:00,
2013-10-25 06:57:00,30.4,25.0,30.49,NNW,337,0.0,0.0,80,0.00,,,0.00,WUHU21623XXSP,2013-10-25 11:57:00,
2013-10-25 07:02:00,30.2,24.8,30.49,NE,45,0.7,0.7,80,0.00,,,0.00,WUHU21623XXSP,2013-10-25 12:02:00,
2013-10-25 07:07:00,30.2,24.8,30.50,NE,45,0.9,1.1,80,0.00,,,0.00,WUHU21623XXSP,2013-10-25 12:07:00,
2013-10-25 07:12:00,30.4,25.0,30.50,NE,45,1.6,1.8,80,0.00,,,0.00,WUHU21623XXSP,2013-10-25 12:12:00,
2013-10-25 07:17:00,30.7,25.3,30.50,NE,45,2.5,2.9,80,0.00,,,0.00,WUHU21623XXSP,2013-10-25 12:17:00,
2013-10-25 07:22:00,31.1,25.7,30.50,NE,45,2.6,4.5,80,0.00,,,0.00,WUHU21623XXSP,2013-10-25 12:22:00,
2013-10-25 07:27:00,31.3,25.9,30.50,NNE,27,1.9,4.7,80,0.00,,,0.00,WUHU21623XXSP,2013-10-25 12:27:00,
2013-10-25 07:32:00,31.6,26.1,30.50,NE,45,0.0,4.7,80,0.00,,,0.00,WUHU21623XXSP,2013-10-25 12:32:00,
2013-10-25 07:37:00,31.8,26.3,30.50,NE,45,1.5,1.8,80,0.00,,,0.00,WUHU21623XXSP,2013-10-25 12:37:00,
2013-10-25 07:42:00,32.2,26.7,30.50,NE,45,1.1,1.8,80,0.00,,,0.00,WUHU21623XXSP,2013-10-25 12:42:00,
2013-10-25 07:47:00,32.2,26.7,30.51,NNE,22,2.7,3.6,80,0.00,,,0.00,WUHU21623XXSP,2013-10-25 12:47:00,
2013-10-25 07:52:00,32.4,26.9,30.51,NNE,22,0.4,3.6,80,0.00,,,0.00,WUHU21623XXSP,2013-10-25 12:52:00,
2013-10-25 07:57:00,32.5,27.0,30.51,NNE,22,1.8,2.9,80,0.00,,,0.00,WUHU21623XXSP,2013-10-25 12:57:00,
2013-10-25 08:02:00,32.7,27.2,30.51,NNE,22,2.5,3.4,80,0.00,,,0.00,WUHU21623XXSP,2013-10-25 13:02:00,
2013-10-25 08:07:00,32.9,27.4,30.51,NNE,20,1.8,3.4,80,0.00,,,0.00,WUHU21623XXSP,2013-10-25 13:07:00,
2013-10-25 08:12:00,33.3,27.5,30.52,NNE,22,1.6,3.4,79,0.00,,,0.00,WUHU21623XXSP,2013-10-25 13:12:00,
2013-10-25 08:17:00,33.6,27.8,30.52,NNE,17,1.8,2.7,79,0.00,,,0.00,WUHU21623XXSP,2013-10-25 13:17:00,
2013-10-25 08:22:00,34.3,28.5,30.52,North,10,2.6,3.6,79,0.00,,,0.00,WUHU21623XXSP,2013-10-25 13:22:00,
2013-10-25 08:27:00,35.2,29.4,30.52,NNE,19,3.2,5.8,79,0.00,,,0.00,WUHU21623XXSP,2013-10-25 13:27:00,
2013-10-25 08:32:00,36.1,30.2,30.53,NNE,22,5.8,5.8,79,0.00,,,0.00,WUHU21623XXSP,2013-10-25 13:32:00,
2013-10-25 08:37:00,36.9,30.4,30.53,NNE,22,7.6,8.3,77,0.00,,,0.00,WUHU21623XXSP,2013-10-25 13:37:00,
2013-10-25 08:42:00,37.8,31.0,30.53,NNE,24,6.3,9.8,76,0.00,,,0.00,WUHU21623XXSP,2013-10-25 13:42:00,
2013-10-25 08:47:00,38.3,31.4,30.53,ENE,67,5.1,9.8,76,0.00,,,0.00,WUHU21623XXSP,2013-10-25 13:47:00,
2013-10-25 08:52:00,39.0,32.1,30.53,NNE,22,5.6,6.7,76,0.00,,,0.00,WUHU21623XXSP,2013-10-25 13:52:00,
2013-10-25 08:57:00,39.6,32.1,30.54,NNE,22,9.2,11.2,74,0.00,,,0.00,WUHU21623XXSP,2013-10-25 13:57:00,
2013-10-25 09:02:00,39.9,32.0,30.54,NNE,26,6.2,11.2,73,0.00,,,0.00,WUHU21623XXSP,2013-10-25 14:02:00,
2013-10-25 09:07:00,40.1,31.9,30.54,NE,46,7.3,10.5,72,0.00,,,0.00,WUHU21623XXSP,2013-10-25 14:07:00,
2013-10-25 09:12:00,40.6,32.3,30.54,NNE,14,6.2,10.5,72,0.00,,,0.00,WUHU21623XXSP,2013-10-25 14:12:00,
2013-10-25 09:17:00,41.2,32.9,30.54,NNE,22,7.6,12.3,72,0.00,,,0.00,WUHU21623XXSP,2013-10-25 14:17:00,
2013-10-25 09:22:00,41.5,32.5,30.54,NNE,18,7.4,12.3,70,0.00,,,0.00,WUHU21623XXSP,2013-10-25 14:22:00,
2013-10-25 09:27:00,42.1,32.7,30.54,NE,50,7.5,10.5,69,0.00,,,0.00,WUHU21623XXSP,2013-10-25 14:27:00,
2013-10-25 09:32:00,42.1,32.4,30.54,NE,45,8.3,10.5,68,0.00,,,0.00,WUHU21623XXSP,2013-10-25 14:32:00,
2013-10-25 09:37:00,42.4,32.7,30.54,ENE,67,6.5,8.9,68,0.00,,,0.00,WUHU21623XXSP,2013-10-25 14:37:00,
2013-10-25 09:42:00,42.6,32.1,30.54,NE,43,9.7,12.8,66,0.00,,,0.00,WUHU21623XXSP,2013-10-25 14:42:00,
2013-10-25 09:47:00,42.6,31.4,30.54,NE,45,11.2,12.8,64,0.00,,,0.00,WUHU21623XXSP,2013-10-25 14:47:00,
2013-10-25 09:52:00,42.6,31.0,30.54,NE,45,12.3,14.8,63,0.00,,,0.00,WUHU21623XXSP,2013-10-25 14:52:00,
2013-10-25 09:57:00,42.6,31.0,30.53,NNE,22,11.6,14.8,63,0.00,,,0.00,WUHU21623XXSP,2013-10-25 14:57:00,
2013-10-25 10:02:00,43.0,30.9,30.53,NE,45,11.4,13.9,62,0.00,,,0.00,WUHU21623XXSP,2013-10-25 15:02:00,
2013-10-25 10:07:00,43.2,30.7,30.53,NE,44,8.6,19.0,61,0.00,,,0.00,WUHU21623XXSP,2013-10-25 15:07:00,
2013-10-25 10:12:00,43.5,31.0,30.53,NE,38,10.9,19.0,61,0.00,,,0.00,WUHU21623XXSP,2013-10-25 15:12:00,
2013-10-25 10:17:00,43.7,31.2,30.53,ENE,67,11.4,17.4,61,0.00,,,0.00,WUHU21623XXSP,2013-10-25 15:17:00,
2013-10-25 10:22:00,44.1,31.2,30.53,NE,45,11.4,16.3,60,0.00,,,0.00,WUHU21623XXSP,2013-10-25 15:22:00,
2013-10-25 10:27:00,44.2,30.8,30.53,NE,51,8.4,16.3,59,0.00,,,0.00,WUHU21623XXSP,2013-10-25 15:27:00,
2013-10-25 10:32:00,44.4,31.5,30.53,ENE,67,6.0,13.4,60,0.00,,,0.00,WUHU21623XXSP,2013-10-25 15:32:00,
2013-10-25 10:37:00,45.0,31.2,30.53,NE,47,8.4,12.5,58,0.00,,,0.00,WUHU21623XXSP,2013-10-25 15:37:00,
2013-10-25 10:42:00,45.1,31.3,30.53,ENE,77,6.3,12.5,58,0.00,,,0.00,WUHU21623XXSP,2013-10-25 15:42:00,
2013-10-25 10:47:00,45.3,31.4,30.53,NE,45,9.2,12.3,58,0.00,,,0.00,WUHU21623XXSP,2013-10-25 15:47:00,
2013-10-25 10:52:00,45.7,31.4,30.53,NE,36,9.1,12.5,57,0.00,,,0.00,WUHU21623XXSP,2013-10-25 15:52:00,
2013-10-25 10:57:00,45.7,31.4,30.53,NNE,12,9.7,14.3,57,0.00,,,0.00,WUHU21623XXSP,2013-10-25 15:57:00,
2013-10-25 11:02:00,45.7,30.9,30.53,NE,39,5.1,14.3,56,0.00,,,0.00,WUHU21623XXSP,2013-10-25 16:02:00,
2013-10-25 11:07:00,46.0,31.7,30.53,SE,135,6.3,12.3,57,0.00,,,0.00,WUHU21623XXSP,2013-10-25 16:07:00,
2013-10-25 11:12:00,46.2,31.4,30.53,NNE,14,10.5,12.8,56,0.00,,,0.00,WUHU21623XXSP,2013-10-25 16:12:00,
2013-10-25 11:17:00,46.2,30.9,30.53,NE,54,7.3,12.8,55,0.00,,,0.00,WUHU21623XXSP,2013-10-25 16:17:00,
2013-10-25 11:22:00,46.0,30.3,30.53,North,6,10.3,14.3,54,0.00,,,0.00,WUHU21623XXSP,2013-10-25 16:22:00,
2013-10-25 11:27:00,46.2,31.4,30.52,NE,45,8.5,14.3,56,0.00,,,0.00,WUHU21623XXSP,2013-10-25 16:27:00,
2013-10-25 11:32:00,46.8,31.5,30.52,NE,48,5.8,12.3,55,0.00,,,0.00,WUHU21623XXSP,2013-10-25 16:32:00,
2013-10-25 11:37:00,46.8,31.5,30.52,NE,46,8.6,12.3,55,0.00,,,0.00,WUHU21623XXSP,2013-10-25 16:37:00,
2013-10-25 11:42:00,46.9,31.1,30.52,East,90,7.8,11.2,54,0.00,,,0.00,WUHU21623XXSP,2013-10-25 16:42:00,
2013-10-25 11:47:00,46.8,31.0,30.52,NE,42,5.2,11.2,54,0.00,,,0.00,WUHU21623XXSP,2013-10-25 16:47:00,
2013-10-25 11:52:00,46.9,31.1,30.52,East,90,6.3,10.5,54,0.00,,,0.00,WUHU21623XXSP,2013-10-25 16:52:00,
2013-10-25 11:57:00,47.3,31.5,30.52,NNE,22,10.7,10.7,54,0.00,,,0.00,WUHU21623XXSP,2013-10-25 16:57:00,
2013-10-25 12:02:00,47.5,32.2,30.52,NNE,22,2.9,10.7,55,0.00,,,0.00,WUHU21623XXSP,2013-10-25 17:02:00,
2013-10-25 12:07:00,47.8,32.0,30.52,NNE,22,7.4,10.1,54,0.00,,,0.00,WUHU21623XXSP,2013-10-25 17:07:00,
2013-10-25 12:12:00,48.0,31.7,30.51,NE,53,6.6,10.7,53,0.00,,,0.00,WUHU21623XXSP,2013-10-25 17:12:00,
2013-10-25 12:17:00,48.2,30.9,30.51,NNE,22,11.2,12.3,51,0.00,,,0.00,WUHU21623XXSP,2013-10-25 17:17:00,
2013-10-25 12:22:00,48.0,30.7,30.51,North,11,6.0,13.9,51,0.00,,,0.00,WUHU21623XXSP,2013-10-25 17:22:00,
2013-10-25 12:27:00,48.2,30.9,30.50,ENE,67,8.5,13.9,51,0.00,,,0.00,WUHU21623XXSP,2013-10-25 17:27:00,
2013-10-25 12:32:00,48.0,30.2,30.50,NNE,28,8.0,13.9,50,0.00,,,0.00,WUHU21623XXSP,2013-10-25 17:32:00,
2013-10-25 12:37:00,48.2,30.9,30.50,NNE,24,5.0,13.6,51,0.00,,,0.00,WUHU21623XXSP,2013-10-25 17:37:00,
2013-10-25 12:42:00,48.7,30.9,30.50,NNE,22,11.2,13.6,50,0.00,,,0.00,WUHU21623XXSP,2013-10-25 17:42:00,
2013-10-25 12:47:00,48.6,30.8,30.49,North,3,2.3,11.2,50,0.00,,,0.00,WUHU21623XXSP,2013-10-25 17:47:00,
2013-10-25 12:52:00,48.7,30.9,30.49,NE,55,3.3,11.0,50,0.00,,,0.00,WUHU21623XXSP,2013-10-25 17:52:00,
2013-10-25 12:57:00,48.9,31.5,30.49,ENE,67,3.4,7.6,51,0.00,,,0.00,WUHU21623XXSP,2013-10-25 17:57:00,
2013-10-25 13:02:00,49.3,31.4,30.48,NE,56,5.9,10.1,50,0.00,,,0.00,WUHU21623XXSP,2013-10-25 18:02:00,
2013-10-25 13:07:00,49.6,31.2,30.48,NE,40,6.6,12.5,49,0.00,,,0.00,WUHU21623XXSP,2013-10-25 18:07:00,
2013-10-25 13:12:00,49.5,31.1,30.48,NE,55,5.9,12.5,49,0.00,,,0.00,WUHU21623XXSP,2013-10-25 18:12:00,
2013-10-25 13:17:00,49.6,31.7,30.48,ENE,62,3.8,10.3,50,0.00,,,0.00,WUHU21623XXSP,2013-10-25 18:17:00,
2013-10-25 13:22:00,49.8,31.4,30.47,SSE,157,1.6,6.9,49,0.00,,,0.00,WUHU21623XXSP,2013-10-25 18:22:00,
2013-10-25 13:27:00,49.8,31.4,30.47,NE,47,6.1,8.9,49,0.00,,,0.00,WUHU21623XXSP,2013-10-25 18:27:00,
2013-10-25 13:32:00,50.0,31.5,30.47,East,93,4.2,8.9,49,0.00,,,0.00,WUHU21623XXSP,2013-10-25 18:32:00,
2013-10-25 13:37:00,50.4,31.9,30.47,NE,35,3.1,7.4,49,0.00,,,0.00,WUHU21623XXSP,2013-10-25 18:37:00,
2013-10-25 13:42:00,50.5,32.0,30.47,NE,45,7.4,9.6,49,0.00,,,0.00,WUHU21623XXSP,2013-10-25 18:42:00,
2013-10-25 13:47:00,50.7,31.7,30.46,NNE,20,2.1,9.6,48,0.00,,,0.00,WUHU21623XXSP,2013-10-25 18:47:00,
2013-10-25 13:52:00,50.7,31.7,30.46,ENE,67,6.5,8.3,48,0.00,,,0.00,WUHU21623XXSP,2013-10-25 18:52:00,
2013-10-25 13:57:00,50.9,31.8,30.46,East,90,3.2,8.3,48,0.00,,,0.00,WUHU21623XXSP,2013-10-25 18:57:00,
2013-10-25 14:02:00,51.6,31.9,30.46,NE,37,6.6,9.8,47,0.00,,,0.00,WUHU21623XXSP,2013-10-25 19:02:00,
2013-10-25 14:07:00,51.8,32.1,30.46,East,81,4.3,9.8,47,0.00,,,0.00,WUHU21623XXSP,2013-10-25 19:07:00,
2013-10-25 14:12:00,51.8,32.1,30.46,NNE,15,3.9,8.3,47,0.00,,,0.00,WUHU21623XXSP,2013-10-25 19:12:00,
2013-10-25 14:17:00,51.6,31.4,30.45,NNE,32,4.8,8.9,46,0.00,,,0.00,WUHU21623XXSP,2013-10-25 19:17:00,
2013-10-25 14:22:00,51.6,31.4,30.45,NE,47,1.4,8.9,46,0.00,,,0.00,WUHU21623XXSP,2013-10-25 19:22:00,
2013-10-25 14:27:00,51.6,30.8,30.44,NNE,22,8.5,11.9,45,0.00,,,0.00,WUHU21623XXSP,2013-10-25 19:27:00,
2013-10-25 14:32:00,51.4,30.7,30.44,North,0,8.5,12.3,45,0.00,,,0.00,WUHU21623XXSP,2013-10-25 19:32:00,
2013-10-25 14:37:00,51.3,30.6,30.44,NE,37,7.2,12.3,45,0.00,,,0.00,WUHU21623XXSP,2013-10-25 19:37:00,
2013-10-25 14:42:00,51.3,31.1,30.44,North,0,6.7,12.3,46,0.00,,,0.00,WUHU21623XXSP,2013-10-25 19:42:00,
2013-10-25 14:47:00,51.3,31.1,30.44,North,0,7.2,11.6,46,0.00,,,0.00,WUHU21623XXSP,2013-10-25 19:47:00,
2013-10-25 14:52:00,51.4,31.2,30.44,North,1,2.0,10.1,46,0.00,,,0.00,WUHU21623XXSP,2013-10-25 19:52:00,
2013-10-25 14:57:00,51.6,31.4,30.44,North,355,7.9,12.1,46,0.00,,,0.00,WUHU21623XXSP,2013-10-25 19:57:00,
2013-10-25 15:02:00,51.6,31.4,30.44,North,0,4.9,12.1,46,0.00,,,0.00,WUHU21623XXSP,2013-10-25 20:02:00,
2013-10-25 15:07:00,51.6,31.4,30.43,North,358,5.2,8.7,46,0.00,,,0.00,WUHU21623XXSP,2013-10-25 20:07:00,
2013-10-25 15:12:00,51.6,31.4,30.43,NNE,22,6.5,7.8,46,0.00,,,0.00,WUHU21623XXSP,2013-10-25 20:12:00,
2013-10-25 15:17:00,52.0,32.3,30.43,NNW,334,6.0,8.5,47,0.00,,,0.00,WUHU21623XXSP,2013-10-25 20:17:00,
2013-10-25 15:22:00,52.3,32.6,30.43,NNE,22,4.0,8.5,47,0.00,,,0.00,WUHU21623XXSP,2013-10-25 20:22:00,
2013-10-25 15:27:00,52.2,31.9,30.43,WNW,303,2.3,7.6,46,0.00,,,0.00,WUHU21623XXSP,2013-10-25 20:27:00,
2013-10-25 15:32:00,52.2,31.4,30.43,NW,323,4.7,8.9,45,0.00,,,0.00,WUHU21623XXSP,2013-10-25 20:32:00,
2013-10-25 15:37:00,52.3,32.0,30.43,North,0,4.9,8.9,46,0.00,,,0.00,WUHU21623XXSP,2013-10-25 20:37:00,
2013-10-25 15:42:00,52.7,31.8,30.43,North,350,2.2,6.3,45,0.00,,,0.00,WUHU21623XXSP,2013-10-25 20:42:00,
2013-10-25 15:47:00,52.7,31.8,30.42,ENE,66,4.5,7.2,45,0.00,,,0.00,WUHU21623XXSP,2013-10-25 20:47:00,
2013-10-25 15:52:00,52.5,31.7,30.42,NE,45,6.5,8.3,45,0.00,,,0.00,WUHU21623XXSP,2013-10-25 20:52:00,
2013-10-25 15:57:00,52.3,31.5,30.42,NE,45,8.1,12.1,45,0.00,,,0.00,WUHU21623XXSP,2013-10-25 20:57:00,
2013-10-25 16:02:00,52.2,30.8,30.42,NNE,27,4.9,12.1,44,0.00,,,0.00,WUHU21623XXSP,2013-10-25 21:02:00,
2013-10-25 16:07:00,52.0,30.6,30.41,ENE,67,4.0,8.9,44,0.00,,,0.00,WUHU21623XXSP,2013-10-25 21:07:00,
2013-10-25 16:12:00,51.8,30.5,30.42,North,9,5.5,8.1,44,0.00,,,0.00,WUHU21623XXSP,2013-10-25 21:12:00,
2013-10-25 16:17:00,51.6,30.8,30.41,NNE,22,4.3,7.6,45,0.00,,,0.00,WUHU21623XXSP,2013-10-25 21:17:00,
2013-10-25 16:22:00,51.8,31.0,30.41,NE,45,1.8,6.3,45,0.00,,,0.00,WUHU21623XXSP,2013-10-25 21:22:00,
2013-10-25 16:27:00,51.6,30.8,30.41,NE,45,3.8,6.3,45,0.00,,,0.00,WUHU21623XXSP,2013-10-25 21:27:00,
2013-10-25 16:32:00,51.8,31.0,30.41,ESE,112,2.5,6.3,45,0.00,,,0.00,WUHU21623XXSP,2013-10-25 21:32:00,
2013-10-25 16:37:00,51.6,30.8,30.41,ENE,61,1.4,4.3,45,0.00,,,0.00,WUHU21623XXSP,2013-10-25 21:37:00,
2013-10-25 16:42:00,51.6,30.3,30.41,NNE,22,0.8,5.4,44,0.00,,,0.00,WUHU21623XXSP,2013-10-25 21:42:00,
2013-10-25 16:47:00,51.6,30.8,30.41,NE,45,1.8,5.4,45,0.00,,,0.00,WUHU21623XXSP,2013-10-25 21:47:00,
2013-10-25 16:52:00,51.6,30.8,30.40,NE,45,0.0,2.7,45,0.00,,,0.00,WUHU21623XXSP,2013-10-25 21:52:00,
2013-10-25 16:57:00,51.6,30.8,30.40,ESE,112,0.9,2.7,45,0.00,,,0.00,WUHU21623XXSP,2013-10-25 21:57:00,
2013-10-25 17:02:00,51.6,30.8,30.40,NE,45,1.4,1.6,45,0.00,,,0.00,WUHU21623XXSP,2013-10-25 22:02:00,
2013-10-25 17:07:00,51.4,30.7,30.39,North,358,3.3,5.4,45,0.00,,,0.00,WUHU21623XXSP,2013-10-25 22:07:00,
2013-10-25 17:12:00,51.4,30.7,30.39,NNE,31,4.9,6.0,45,0.00,,,0.00,WUHU21623XXSP,2013-10-25 22:12:00,
2013-10-25 17:17:00,51.3,30.6,30.39,NE,45,5.6,6.0,45,0.00,,,0.00,WUHU21623XXSP,2013-10-25 22:17:00,
2013-10-25 17:22:00,51.1,30.4,30.39,NNE,22,4.0,6.0,45,0.00,,,0.00,WUHU21623XXSP,2013-10-25 22:22:00,
2013-10-25 17:27:00,50.9,30.2,30.39,NNE,22,2.5,5.4,45,0.00,,,0.00,WUHU21623XXSP,2013-10-25 22:27:00,
2013-10-25 17:32:00,50.7,30.0,30.39,NNE,22,0.4,4.7,45,0.00,,,0.00,WUHU21623XXSP,2013-10-25 22:32:00,
2013-10-25 17:37:00,50.7,30.0,30.39,NNE,22,1.1,1.1,45,0.00,,,0.00,WUHU21623XXSP,2013-10-25 22:37:00,
2013-10-25 17:42:00,50.5,30.4,30.39,NNE,22,0.0,1.6,46,0.00,,,0.00,WUHU21623XXSP,2013-10-25 22:42:00,
2013-10-25 17:47:00,50.2,30.7,30.39,NNE,22,0.0,1.6,47,0.00,,,0.00,WUHU21623XXSP,2013-10-25 22:47:00,
2013-10-25 17:52:00,49.8,30.8,30.39,NNE,22,0.0,0.0,48,0.00,,,0.00,WUHU21623XXSP,2013-10-25 22:52:00,
2013-10-25 17:57:00,49.3,30.9,30.39,NNE,22,0.0,0.0,49,0.00,,,0.00,WUHU21623XXSP,2013-10-25 22:57:00,
2013-10-25 18:02:00,48.9,31.0,30.39,NNE,22,0.0,0.0,50,0.00,,,0.00,WUHU21623XXSP,2013-10-25 23:02:00,
2013-10-25 18:07:00,48.4,30.6,30.39,NNE,22,0.0,0.0,50,0.00,,,0.00,WUHU21623XXSP,2013-10-25 23:07:00,
2013-10-25 18:12:00,47.8,30.0,30.39,NNE,22,0.0,0.0,50,0.00,,,0.00,WUHU21623XXSP,2013-10-25 23:12:00,
2013-10-25 18:17:00,47.3,30.1,30.39,NNE,22,0.0,0.0,51,0.00,,,0.00,WUHU21623XXSP,2013-10-25 23:17:00,
2013-10-25 18:22:00,46.9,29.7,30.39,NNE,22,0.0,0.0,51,0.00,,,0.00,WUHU21623XXSP,2013-10-25 23:22:00,
2013-10-25 18:27:00,46.6,30.4,30.39,NNE,22,0.0,0.0,53,0.00,,,0.00,WUHU21623XXSP,2013-10-25 23:27:00,
2013-10-25 18:32:00,46.0,30.3,30.39,NNE,22,0.0,0.0,54,0.00,,,0.00,WUHU21623XXSP,2013-10-25 23:32:00,
2013-10-25 18:37:00,45.3,30.1,30.39,NNE,22,0.0,0.0,55,0.00,,,0.00,WUHU21623XXSP,2013-10-25 23:37:00,
2013-10-25 18:42:00,45.0,30.3,30.39,NNE,22,0.0,0.0,56,0.00,,,0.00,WUHU21623XXSP,2013-10-25 23:42:00,
2013-10-25 18:47:00,44.4,29.7,30.39,NNE,22,0.4,0.4,56,0.00,,,0.00,WUHU21623XXSP,2013-10-25 23:47:00,
2013-10-25 18:52:00,43.9,29.7,30.39,NNE,22,0.3,0.4,57,0.00,,,0.00,WUHU21623XXSP,2013-10-25 23:52:00,
2013-10-25 18:57:00,43.3,29.6,30.39,NNE,22,0.0,0.4,58,0.00,,,0.00,WUHU21623XXSP,2013-10-25 23:57:00,
2013-10-25 19:02:00,43.0,29.3,30.39,NNE,22,0.0,0.0,58,0.00,,,0.00,WUHU21623XXSP,2013-10-26 00:02:00,
2013-10-25 19:07:00,42.6,29.3,30.39,NNE,22,0.0,0.0,59,0.00,,,0.00,WUHU21623XXSP,2013-10-26 00:07:00,
2013-10-25 19:12:00,42.4,29.6,30.39,NNE,22,0.4,0.4,60,0.00,,,0.00,WUHU21623XXSP,2013-10-26 00:12:00,
2013-10-25 19:17:00,42.1,29.7,30.39,NNE,22,0.0,0.4,61,0.00,,,0.00,WUHU21623XXSP,2013-10-26 00:17:00,
2013-10-25 19:22:00,41.5,29.5,30.39,NNE,22,0.0,0.4,62,0.00,,,0.00,WUHU21623XXSP,2013-10-26 00:22:00,
2013-10-25 19:27:00,41.2,29.2,30.39,NNE,22,0.0,0.0,62,0.00,,,0.00,WUHU21623XXSP,2013-10-26 00:27:00,
2013-10-25 19:32:00,40.8,28.9,30.38,NNE,22,0.0,0.0,62,0.00,,,0.00,WUHU21623XXSP,2013-10-26 00:32:00,
2013-10-25 19:37:00,40.5,29.0,30.38,NNE,22,0.0,0.0,63,0.00,,,0.00,WUHU21623XXSP,2013-10-26 00:37:00,
2013-10-25 19:42:00,39.9,29.2,30.39,NNE,22,0.0,0.0,65,0.00,,,0.00,WUHU21623XXSP,2013-10-26 00:42:00,
2013-10-25 19:47:00,39.7,29.0,30.38,NNE,22,0.0,0.0,65,0.00,,,0.00,WUHU21623XXSP,2013-10-26 00:47:00,
2013-10-25 19:52:00,39.4,29.1,30.38,NNE,22,0.0,0.0,66,0.00,,,0.00,WUHU21623XXSP,2013-10-26 00:52:00,
2013-10-25 19:57:00,39.0,29.0,30.38,NNE,22,0.0,0.0,67,0.00,,,0.00,WUHU21623XXSP,2013-10-26 00:57:00,
2013-10-25 20:02:00,39.0,28.7,30.38,NNE,22,0.0,0.0,66,0.00,,,0.00,WUHU21623XXSP,2013-10-26 01:02:00,
2013-10-25 20:07:00,38.8,28.9,30.38,NNE,22,0.0,0.0,67,0.00,,,0.00,WUHU21623XXSP,2013-10-26 01:07:00,
2013-10-25 20:12:00,38.3,28.7,30.38,NNE,22,0.0,0.0,68,0.00,,,0.00,WUHU21623XXSP,2013-10-26 01:12:00,
2013-10-25 20:17:00,38.1,28.9,30.38,NNE,22,0.0,0.0,69,0.00,,,0.00,WUHU21623XXSP,2013-10-26 01:17:00,
2013-10-25 20:22:00,37.9,29.1,30.37,NNE,22,0.0,0.0,70,0.00,,,0.00,WUHU21623XXSP,2013-10-26 01:22:00,
2013-10-25 20:27:00,37.8,29.6,30.37,NNE,22,0.6,0.7,72,0.00,,,0.00,WUHU21623XXSP,2013-10-26 01:27:00,
2013-10-25 20:32:00,37.6,29.8,30.37,NNE,22,0.0,0.7,73,0.00,,,0.00,WUHU21623XXSP,2013-10-26 01:32:00,
2013-10-25 20:37:00,37.4,29.6,30.38,NNE,22,0.0,0.6,73,0.00,,,0.00,WUHU21623XXSP,2013-10-26 01:37:00,
2013-10-25 20:42:00,37.2,29.7,30.37,NNE,22,0.0,0.0,74,0.00,,,0.00,WUHU21623XXSP,2013-10-26 01:42:00,
2013-10-25 20:47:00,37.2,29.4,30.38,NNE,22,0.0,0.0,73,0.00,,,0.00,WUHU21623XXSP,2013-10-26 01:47:00,
2013-10-25 20:52:00,37.0,29.2,30.37,NNE,22,0.0,0.0,73,0.00,,,0.00,WUHU21623XXSP,2013-10-26 01:52:00,
2013-10-25 20:57:00,36.7,28.9,30.37,NNE,22,0.0,0.0,73,0.00,,,0.00,WUHU21623XXSP,2013-10-26 01:57:00,
2013-10-25 21:02:00,36.5,28.7,30.37,NNE,22,0.0,0.0,73,0.00,,,0.00,WUHU21623XXSP,2013-10-26 02:02:00,
2013-10-25 21:07:00,36.3,28.5,30.37,NNE,22,0.0,0.0,73,0.00,,,0.00,WUHU21623XXSP,2013-10-26 02:07:00,
2013-10-25 21:12:00,36.3,28.9,30.37,NNE,22,0.0,0.0,74,0.00,,,0.00,WUHU21623XXSP,2013-10-26 02:12:00,
2013-10-25 21:17:00,36.3,29.2,30.37,NNE,22,0.0,0.0,75,0.00,,,0.00,WUHU21623XXSP,2013-10-26 02:17:00,
2013-10-25 21:22:00,36.1,29.0,30.37,NNE,22,0.0,0.0,75,0.00,,,0.00,WUHU21623XXSP,2013-10-26 02:22:00,
2013-10-25 21:27:00,36.1,29.3,30.37,NNE,22,0.0,0.0,76,0.00,,,0.00,WUHU21623XXSP,2013-10-26 02:27:00,
2013-10-25 21:32:00,36.0,29.5,30.37,NNE,22,0.0,0.0,77,0.00,,,0.00,WUHU21623XXSP,2013-10-26 02:32:00,
2013-10-25 21:37:00,36.1,29.6,30.36,NNE,22,0.0,0.0,77,0.00,,,0.00,WUHU21623XXSP,2013-10-26 02:37:00,
2013-10-25 21:42:00,36.0,29.5,30.36,NNE,22,0.0,0.2,77,0.00,,,0.00,WUHU21623XXSP,2013-10-26 02:42:00,
2013-10-25 21:47:00,36.0,29.5,30.36,NNE,22,0.0,0.2,77,0.00,,,0.00,WUHU21623XXSP,2013-10-26 02:47:00,
2013-10-25 21:52:00,35.8,29.6,30.36,NNE,22,0.0,0.0,78,0.00,,,0.00,WUHU21623XXSP,2013-10-26 02:52:00,
2013-10-25 21:57:00,35.8,29.6,30.36,NNE,22,0.0,0.0,78,0.00,,,0.00,WUHU21623XXSP,2013-10-26 02:57:00,
2013-10-25 22:02:00,35.4,29.2,30.36,NNE,22,0.0,0.0,78,0.00,,,0.00,WUHU21623XXSP,2013-10-26 03:02:00,
2013-10-25 22:07:00,35.4,29.2,30.36,NNE,22,0.0,0.0,78,0.00,,,0.00,WUHU21623XXSP,2013-10-26 03:07:00,
2013-10-25 22:12:00,35.2,29.1,30.36,NNE,22,0.0,0.0,78,0.00,,,0.00,WUHU21623XXSP,2013-10-26 03:12:00,
2013-10-25 22:17:00,35.2,29.1,30.36,SSE,157,0.0,0.0,78,0.00,,,0.00,WUHU21623XXSP,2013-10-26 03:17:00,
2013-10-25 22:22:00,34.9,28.8,30.36,SSE,157,0.0,0.2,78,0.00,,,0.00,WUHU21623XXSP,2013-10-26 03:22:00,
2013-10-25 22:27:00,34.9,28.8,30.36,South,180,1.1,2.9,78,0.00,,,0.00,WUHU21623XXSP,2013-10-26 03:27:00,
2013-10-25 22:32:00,34.7,28.6,30.36,South,180,0.0,2.9,78,0.00,,,0.00,WUHU21623XXSP,2013-10-26 03:32:00,
2013-10-25 22:37:00,34.7,28.6,30.36,South,180,0.5,0.9,78,0.00,,,0.00,WUHU21623XXSP,2013-10-26 03:37:00,
2013-10-25 22:42:00,34.7,28.6,30.36,SSW,202,0.0,1.8,78,0.00,,,0.00,WUHU21623XXSP,2013-10-26 03:42:00,
2013-10-25 22:47:00,34.5,28.4,30.36,SSW,202,0.0,1.8,78,0.00,,,0.00,WUHU21623XXSP,2013-10-26 03:47:00,
2013-10-25 22:52:00,34.3,28.5,30.36,SSW,202,0.0,0.0,79,0.00,,,0.00,WUHU21623XXSP,2013-10-26 03:52:00,
2013-10-25 22:57:00,34.3,28.5,30.35,SSW,202,0.0,0.0,79,0.00,,,0.00,WUHU21623XXSP,2013-10-26 03:57:00,
2013-10-25 23:01:00,34.3,28.5,30.35,SSW,202,0.0,0.0,79,0.00,,,0.00,WUHU21623XXSP,2013-10-26 04:01:00,
2013-10-25 23:02:00,34.3,28.5,30.35,SSW,202,0.0,0.0,79,0.00,,,0.00,WUHU21623XXSP,2013-10-26 04:02:00,
2013-10-25 23:07:00,34.3,28.5,30.35,SSW,202,0.4,0.4,79,0.00,,,0.00,WUHU21623XXSP,2013-10-26 04:07:00,
2013-10-25 23:12:00,34.3,28.5,30.35,SSW,202,0.4,0.4,79,0.00,,,0.00,WUHU21623XXSP,2013-10-26 04:12:00,
2013-10-25 23:17:00,34.3,28.5,30.35,SSW,194,1.1,1.3,79,0.00,,,0.00,WUHU21623XXSP,2013-10-26 04:17:00,
2013-10-25 23:22:00,34.3,28.5,30.35,South,180,2.5,3.4,79,0.00,,,0.00,WUHU21623XXSP,2013-10-26 04:22:00,
2013-10-25 23:27:00,34.3,28.5,30.35,South,180,2.7,3.8,79,0.00,,,0.00,WUHU21623XXSP,2013-10-26 04:27:00,
2013-10-25 23:32:00,34.5,28.7,30.34,South,180,1.8,3.8,79,0.00,,,0.00,WUHU21623XXSP,2013-10-26 04:32:00,
2013-10-25 23:37:00,34.5,28.7,30.34,South,180,0.9,3.1,79,0.00,,,0.00,WUHU21623XXSP,2013-10-26 04:37:00,
2013-10-25 23:42:00,34.5,28.7,30.34,South,180,0.0,3.1,79,0.00,,,0.00,WUHU21623XXSP,2013-10-26 04:42:00,
2013-10-25 23:47:00,34.3,28.5,30.34,South,180,0.0,0.0,79,0.00,,,0.00,WUHU21623XXSP,2013-10-26 04:47:00,
2013-10-25 23:52:00,34.3,28.5,30.34,South,180,0.0,0.0,79,0.00,,,0.00,WUHU21623XXSP,2013-10-26 04:52:00,
2013-10-25 23:57:00,34.3,28.5,30.34,South,180,0.0,0.0,79,0.00,,,0.00,WUHU21623XXSP,2013-10-26 04:57:00,